createdAt,value
2022-08-07T00:02:36.200Z,102342.00
2022-08-07T00:04:09.563Z,102354.00
2022-08-07T00:07:01.455Z,102351.00
2022-08-07T00:09:35.586Z,102345.00
2022-08-07T00:12:03.361Z,102348.00
2022-08-07T00:14:31.661Z,102348.00
2022-08-07T00:17:02.522Z,102347.00
2022-08-07T00:20:00.341Z,102349.00
2022-08-07T00:22:24.816Z,102342.00
2022-08-07T00:25:07.040Z,102348.00
2022-08-07T00:27:52.283Z,102346.00
2022-08-07T00:30:27.371Z,102342.00
2022-08-07T00:32:58.360Z,102328.00
2022-08-07T00:35:29.712Z,102338.00
2022-08-07T00:37:59.388Z,102331.00
2022-08-07T00:40:39.457Z,102338.00
2022-08-07T00:43:10.837Z,102319.00
2022-08-07T00:45:59.319Z,102331.00
2022-08-07T00:48:30.914Z,102323.00
2022-08-07T00:51:01.182Z,102321.00
2022-08-07T00:53:38.992Z,102326.00
2022-08-07T00:56:16.126Z,102318.00
2022-08-07T00:58:46.946Z,102309.00
2022-08-07T01:01:15.650Z,102307.00
2022-08-07T01:03:56.618Z,102313.00
2022-08-07T01:06:29.227Z,102304.00
2022-08-07T01:09:01.142Z,102313.00
2022-08-07T01:12:23.721Z,102310.00
2022-08-07T01:14:28.240Z,102306.00
2022-08-07T01:16:57.933Z,102303.00
2022-08-07T01:19:27.409Z,102297.00
2022-08-07T01:22:00.499Z,102305.00
2022-08-07T01:24:32.215Z,102308.00
2022-08-07T01:27:01.107Z,102306.00
2022-08-07T01:29:31.530Z,102300.00
2022-08-07T01:32:05.554Z,102301.00
2022-08-07T01:34:39.777Z,102297.00
2022-08-07T01:37:09.616Z,102299.00
2022-08-07T01:40:00.219Z,102302.00
2022-08-07T01:42:37.586Z,102302.00
2022-08-07T01:45:15.721Z,102288.00
2022-08-07T01:48:18.300Z,102295.00
2022-08-07T01:50:36.403Z,102282.00
2022-08-07T01:53:08.653Z,102283.00
2022-08-07T01:55:47.660Z,102290.00
2022-08-07T01:58:28.931Z,102284.00
2022-08-07T02:01:58.747Z,102282.00
2022-08-07T02:04:38.254Z,102269.00
2022-08-07T02:07:09.839Z,102282.00
2022-08-07T02:09:53.089Z,102276.00
2022-08-07T02:12:29.185Z,102283.00
2022-08-07T02:15:06.771Z,102271.00
2022-08-07T02:17:36.118Z,102271.00
2022-08-07T02:20:09.818Z,102272.00
2022-08-07T02:22:52.991Z,102270.00
2022-08-07T02:26:11.438Z,102267.00
2022-08-07T02:28:25.614Z,102261.00
2022-08-07T02:30:56.947Z,102268.00
2022-08-07T02:33:32.728Z,102269.00
2022-08-07T02:36:30.525Z,102267.00
2022-08-07T02:38:59.827Z,102266.00
2022-08-07T02:41:33.516Z,102264.00
2022-08-07T02:44:05.938Z,102255.00
2022-08-07T02:46:36.822Z,102262.00
2022-08-07T02:49:05.877Z,102266.00
2022-08-07T02:51:42.351Z,102266.00
2022-08-07T02:54:20.190Z,102252.00
2022-08-07T02:56:49.517Z,102260.00
2022-08-07T02:59:24.096Z,102261.00
2022-08-07T03:01:56.499Z,102258.00
2022-08-07T03:04:29.913Z,102267.00
2022-08-07T03:07:07.039Z,102262.00
2022-08-07T03:09:43.377Z,102254.00
2022-08-07T03:12:22.078Z,102261.00
2022-08-07T03:14:52.815Z,102244.00
2022-08-07T03:17:22.233Z,102248.00
2022-08-07T03:19:55.587Z,102267.00
2022-08-07T03:22:30.262Z,102253.00
2022-08-07T03:25:00.358Z,102255.00
2022-08-07T03:27:30.890Z,102256.00
2022-08-07T03:30:17.354Z,102257.00
2022-08-07T03:32:58.386Z,102241.00
2022-08-07T03:35:43.541Z,102256.00
2022-08-07T03:38:13.786Z,102250.00
2022-08-07T03:40:44.247Z,102243.00
2022-08-07T03:43:14.525Z,102256.00
2022-08-07T03:45:47.600Z,102242.00
2022-08-07T03:48:15.597Z,102256.00
2022-08-07T03:50:51.990Z,102257.00
2022-08-07T03:54:00.761Z,102248.00
2022-08-07T03:56:13.615Z,102255.00
2022-08-07T03:59:08.325Z,102263.00
2022-08-07T04:01:32.128Z,102259.00
2022-08-07T04:04:00.287Z,102260.00
2022-08-07T04:06:37.996Z,102265.00
2022-08-07T04:09:14.995Z,102262.00
2022-08-07T04:12:25.319Z,102267.00
2022-08-07T04:14:37.778Z,102261.00
2022-08-07T04:17:16.468Z,102247.00
2022-08-07T04:19:52.093Z,102253.00
2022-08-07T04:22:29.083Z,102253.00
2022-08-07T04:25:01.198Z,102256.00
2022-08-07T04:27:35.819Z,102261.00
2022-08-07T04:30:21.084Z,102271.00
2022-08-07T04:32:59.079Z,102261.00
2022-08-07T04:35:27.025Z,102270.00
2022-08-07T04:38:03.385Z,102253.00
2022-08-07T04:40:52.257Z,102255.00
2022-08-07T04:44:12.843Z,102259.00
2022-08-07T04:47:04.371Z,102259.00
2022-08-07T04:50:04.180Z,102260.00
2022-08-07T04:52:46.758Z,102266.00
2022-08-07T04:58:11.332Z,102263.00
2022-08-07T05:01:58.305Z,102265.00
2022-08-07T05:05:51.693Z,102266.00
2022-08-07T05:08:15.019Z,102266.00
2022-08-07T05:11:09.832Z,102267.00
2022-08-07T05:14:53.190Z,102269.00
2022-08-07T05:17:11.847Z,102270.00
2022-08-07T05:19:46.378Z,102276.00
2022-08-07T05:22:26.629Z,102283.00
2022-08-07T05:24:59.535Z,102274.00
2022-08-07T05:28:03.029Z,102276.00
2022-08-07T05:30:29.913Z,102278.00
2022-08-07T05:32:59.931Z,102279.00
2022-08-07T05:35:41.747Z,102281.00
2022-08-07T05:38:10.126Z,102275.00
2022-08-07T05:40:50.376Z,102277.00
2022-08-07T05:43:49.705Z,102294.00
2022-08-07T05:46:08.066Z,102284.00
2022-08-07T05:48:36.056Z,102288.00
2022-08-07T05:51:24.464Z,102285.00
2022-08-07T05:54:13.913Z,102278.00
2022-08-07T05:56:41.783Z,102298.00
2022-08-07T05:59:18.831Z,102291.00
2022-08-07T06:01:49.337Z,102283.00
2022-08-07T06:04:19.870Z,102282.00
2022-08-07T06:06:56.611Z,102270.00
2022-08-07T06:10:03.812Z,102285.00
2022-08-07T06:12:21.063Z,102273.00
2022-08-07T06:14:58.678Z,102281.00
2022-08-07T06:17:38.072Z,102281.00
2022-08-07T06:20:12.557Z,102286.00
2022-08-07T06:23:04.117Z,102293.00
2022-08-07T06:25:54.602Z,102273.00
2022-08-07T06:28:27.718Z,102275.00
2022-08-07T06:30:58.218Z,102274.00
2022-08-07T06:33:27.499Z,102276.00
2022-08-07T06:36:06.459Z,102268.00
2022-08-07T06:38:59.476Z,102277.00
2022-08-07T06:42:02.045Z,102279.00
2022-08-07T06:44:34.167Z,102280.00
2022-08-07T06:47:10.559Z,102273.00
2022-08-07T06:49:51.250Z,102266.00
2022-08-07T06:52:31.473Z,102265.00
2022-08-07T06:55:31.569Z,102265.00
2022-08-07T06:58:10.334Z,102269.00
2022-08-07T07:00:43.158Z,102250.00
2022-08-07T07:03:14.408Z,102258.00
2022-08-07T07:06:03.484Z,102246.00
2022-08-07T07:08:33.896Z,102257.00
2022-08-07T07:11:14.069Z,102256.00
2022-08-07T07:14:01.483Z,102248.00
2022-08-07T07:16:39.194Z,102256.00
2022-08-07T07:19:57.775Z,102252.00
2022-08-07T07:22:40.048Z,102257.00
2022-08-07T07:26:31.304Z,102248.00
2022-08-07T07:28:07.448Z,102247.00
2022-08-07T07:30:40.557Z,102246.00
2022-08-07T07:33:13.737Z,102253.00
2022-08-07T07:36:04.156Z,102252.00
2022-08-07T07:38:35.814Z,102246.00
2022-08-07T07:41:09.181Z,102252.00
2022-08-07T07:43:48.211Z,102248.00
2022-08-07T07:46:38.104Z,102249.00
2022-08-07T07:50:35.483Z,102240.00
2022-08-07T07:52:13.865Z,102251.00
2022-08-07T07:54:50.797Z,102249.00
2022-08-07T07:57:43.660Z,102241.00
2022-08-07T08:00:20.739Z,102242.00
2022-08-07T08:03:05.496Z,102241.00
2022-08-07T08:05:54.089Z,102241.00
2022-08-07T08:08:34.791Z,102230.00
2022-08-07T08:11:16.173Z,102237.00
2022-08-07T08:13:54.424Z,102246.00
2022-08-07T08:16:35.040Z,102235.00
2022-08-07T08:19:17.695Z,102238.00
2022-08-07T08:22:18.699Z,102233.00
2022-08-07T08:25:25.141Z,102235.00
2022-08-07T08:28:03.652Z,102234.00
2022-08-07T08:30:37.512Z,102230.00
2022-08-07T08:33:18.701Z,102235.00
2022-08-07T08:35:55.998Z,102223.00
2022-08-07T08:38:41.195Z,102222.00
2022-08-07T08:41:58.565Z,102223.00
2022-08-07T08:44:51.310Z,102219.00
2022-08-07T08:47:52.278Z,102211.00
2022-08-07T08:50:39.357Z,102217.00
2022-08-07T08:53:19.332Z,102222.00
2022-08-07T08:56:24.958Z,102225.00
2022-08-07T08:59:20.700Z,102227.00
2022-08-07T09:02:34.846Z,102224.00
2022-08-07T09:05:32.282Z,102219.00
2022-08-07T09:08:42.633Z,102223.00
2022-08-07T09:12:31.222Z,102221.00
2022-08-07T09:16:22.015Z,102218.00
2022-08-07T09:19:44.710Z,102216.00
2022-08-07T09:24:54.027Z,102222.00
2022-08-07T09:26:20.765Z,102222.00
2022-08-07T09:30:00.910Z,102228.00
2022-08-07T09:32:02.382Z,102227.00
2022-08-07T09:34:53.846Z,102226.00
2022-08-07T09:37:53.592Z,102228.00
2022-08-07T09:40:58.860Z,102217.00
2022-08-07T09:44:06.170Z,102218.00
2022-08-07T09:47:42.329Z,102216.00
2022-08-07T09:50:22.437Z,102210.00
2022-08-07T09:53:05.853Z,102220.00
2022-08-07T09:56:34.036Z,102217.00
2022-08-07T09:59:35.890Z,102212.00
2022-08-07T10:04:06.620Z,102200.00
2022-08-07T10:06:25.960Z,102197.00
2022-08-07T10:10:00.783Z,102195.00
2022-08-07T10:12:45.923Z,102192.00
2022-08-07T10:16:06.549Z,102190.00
2022-08-07T10:19:14.504Z,102189.00
2022-08-07T10:22:33.606Z,102186.00
2022-08-07T10:25:42.881Z,102180.00
2022-08-07T10:28:36.743Z,102181.00
2022-08-07T10:31:28.184Z,102185.00
2022-08-07T10:34:15.798Z,102186.00
2022-08-07T10:37:14.144Z,102184.00
2022-08-07T10:40:08.913Z,102179.00
2022-08-07T10:43:14.988Z,102175.00
2022-08-07T10:45:58.782Z,102168.00
2022-08-07T10:48:48.830Z,102173.00
2022-08-07T10:52:01.642Z,102168.00
2022-08-07T10:55:00.938Z,102172.00
2022-08-07T10:58:15.679Z,102171.00
2022-08-07T11:01:51.707Z,102166.00
2022-08-07T11:05:06.024Z,102155.00
2022-08-07T11:08:00.296Z,102151.00
2022-08-07T11:10:49.995Z,102147.00
2022-08-07T11:14:45.145Z,102142.00
2022-08-07T11:16:46.820Z,102143.00
2022-08-07T11:19:45.739Z,102144.00
2022-08-07T11:22:38.255Z,102141.00
2022-08-07T11:26:09.694Z,102147.00
2022-08-07T11:28:55.576Z,102138.00
2022-08-07T11:31:53.533Z,102140.00
2022-08-07T11:35:16.486Z,102135.00
2022-08-07T11:38:17.285Z,102139.00
2022-08-07T11:40:58.292Z,102127.00
2022-08-07T11:43:54.374Z,102117.00
2022-08-07T11:47:12.763Z,102112.00
2022-08-07T11:50:31.409Z,102111.00
2022-08-07T11:53:33.716Z,102113.00
2022-08-07T11:56:38.197Z,102108.00
2022-08-07T12:00:10.296Z,102115.00
2022-08-07T12:02:52.489Z,102119.00
2022-08-07T12:06:01.489Z,102126.00
2022-08-07T12:09:16.192Z,102116.00
2022-08-07T12:12:10.851Z,102118.00
2022-08-07T12:15:00.262Z,102108.00
2022-08-07T12:17:59.846Z,102115.00
2022-08-07T12:20:49.286Z,102112.00
2022-08-07T12:24:06.177Z,102112.00
2022-08-07T12:26:53.077Z,102108.00
2022-08-07T12:29:51.635Z,102105.00
2022-08-07T12:32:40.582Z,102103.00
2022-08-07T12:35:14.953Z,102100.00
2022-08-07T12:38:10.147Z,102094.00
2022-08-07T12:40:47.828Z,102092.00
2022-08-07T12:44:02.284Z,102084.00
2022-08-07T12:47:14.240Z,102097.00
2022-08-07T12:50:34.491Z,102105.00
2022-08-07T12:54:02.794Z,102101.00
2022-08-07T12:56:39.726Z,102090.00
2022-08-07T12:59:08.995Z,102081.00
2022-08-07T13:02:49.584Z,102084.00
2022-08-07T13:06:03.941Z,102074.00
2022-08-07T13:08:29.352Z,102087.00
2022-08-07T13:12:03.182Z,102079.00
2022-08-07T13:15:14.187Z,102083.00
2022-08-07T13:18:48.966Z,102080.00
2022-08-07T13:21:59.045Z,102074.00
2022-08-07T13:25:00.469Z,102070.00
2022-08-07T13:28:12.553Z,102077.00
2022-08-07T13:31:13.063Z,102075.00
2022-08-07T13:34:34.583Z,102067.00
2022-08-07T13:37:25.960Z,102061.00
2022-08-07T13:40:34.846Z,102054.00
2022-08-07T13:43:13.048Z,102049.00
2022-08-07T13:46:21.528Z,102040.00
2022-08-07T13:48:38.721Z,102046.00
2022-08-07T13:51:28.008Z,102050.00
2022-08-07T13:54:07.657Z,102038.00
2022-08-07T13:56:40.933Z,102045.00
2022-08-07T13:59:31.567Z,102047.00
2022-08-07T14:02:08.762Z,102038.00
2022-08-07T14:04:55.284Z,102036.00
2022-08-07T14:07:38.171Z,102040.00
2022-08-07T14:10:28.450Z,102040.00
2022-08-07T14:13:04.011Z,102032.00
2022-08-07T14:15:35.045Z,102038.00
2022-08-07T14:18:28.230Z,102036.00
2022-08-07T14:22:00.477Z,102019.00
2022-08-07T14:24:09.374Z,102015.00
2022-08-07T14:26:57.223Z,102027.00
2022-08-07T14:30:05.060Z,102020.00
2022-08-07T14:32:26.682Z,102026.00
2022-08-07T14:34:55.544Z,102019.00
2022-08-07T14:37:36.119Z,102026.00
2022-08-07T14:40:26.426Z,102021.00
2022-08-07T14:43:58.429Z,102016.00
2022-08-07T14:45:55.423Z,102018.00
2022-08-07T14:48:37.905Z,102013.00
2022-08-07T14:51:15.710Z,102006.00
2022-08-07T14:54:08.911Z,102012.00
2022-08-07T14:56:34.333Z,102001.00
2022-08-07T14:59:14.041Z,102016.00
2022-08-07T15:02:31.832Z,102010.00
2022-08-07T15:05:04.448Z,102015.00
2022-08-07T15:07:51.102Z,102020.00
2022-08-07T15:13:25.344Z,102005.00
2022-08-07T15:16:02.692Z,102006.00
2022-08-07T15:18:55.994Z,102013.00
2022-08-07T15:21:59.324Z,102011.00
2022-08-07T15:27:25.056Z,102003.00
2022-08-07T15:30:04.746Z,102002.00
2022-08-07T15:33:01.591Z,102002.00
2022-08-07T15:36:01.672Z,102009.00
2022-08-07T15:38:32.968Z,102000.00
2022-08-07T15:44:15.243Z,101990.00
2022-08-07T15:46:51.946Z,101990.00
2022-08-07T15:50:05.739Z,101987.00
2022-08-07T15:52:30.397Z,101990.00
2022-08-07T15:55:08.951Z,101996.00
2022-08-07T15:57:48.406Z,101991.00
2022-08-07T16:00:32.233Z,101992.00
2022-08-07T16:03:46.532Z,101994.00
2022-08-07T16:06:13.238Z,101985.00
2022-08-07T16:08:47.453Z,101986.00
2022-08-07T16:12:00.079Z,101979.00
2022-08-07T16:15:01.415Z,101978.00
2022-08-07T16:18:49.479Z,101986.00
2022-08-07T16:22:06.828Z,101971.00
2022-08-07T16:25:07.563Z,101980.00
2022-08-07T16:30:08.245Z,101973.00
2022-08-07T16:31:51.378Z,101976.00
2022-08-07T16:34:45.529Z,101980.00
2022-08-07T16:38:06.139Z,101976.00
2022-08-07T16:41:01.468Z,101973.00
2022-08-07T16:44:47.527Z,101970.00
2022-08-07T16:48:03.398Z,101971.00
2022-08-07T16:51:22.608Z,101982.00
2022-08-07T16:54:19.448Z,101975.00
2022-08-07T16:57:04.102Z,101971.00
2022-08-07T17:00:14.928Z,101969.00
2022-08-07T17:03:17.462Z,101968.00
2022-08-07T17:06:41.053Z,101971.00
2022-08-07T17:10:06.052Z,101974.00
2022-08-07T17:12:44.386Z,101970.00
2022-08-07T17:15:15.655Z,101973.00
2022-08-07T17:17:49.151Z,101969.00
2022-08-07T17:20:29.789Z,101972.00
2022-08-07T17:23:22.913Z,101963.00
2022-08-07T17:26:04.586Z,101964.00
2022-08-07T17:28:58.999Z,101971.00
2022-08-07T17:32:06.372Z,101967.00
2022-08-07T17:35:49.640Z,101965.00
2022-08-07T17:38:33.670Z,101976.00
2022-08-07T17:42:01.979Z,101979.00
2022-08-07T17:44:33.944Z,101976.00
2022-08-07T17:47:38.133Z,101981.00
2022-08-07T17:50:19.093Z,101982.00
2022-08-07T17:53:01.120Z,101974.00
2022-08-07T17:56:00.278Z,101984.00
2022-08-07T17:58:49.825Z,101991.00
2022-08-07T18:01:36.655Z,101989.00
2022-08-07T18:04:49.281Z,101985.00
2022-08-07T18:07:43.577Z,101989.00
2022-08-07T18:10:32.509Z,101995.00
2022-08-07T18:13:20.343Z,101994.00
2022-08-07T18:16:15.577Z,101993.00
2022-08-07T18:21:05.947Z,101993.00
2022-08-07T18:22:17.125Z,101996.00
2022-08-07T18:25:01.602Z,102002.00
2022-08-07T18:28:33.088Z,101994.00
2022-08-07T18:31:50.190Z,102004.00
2022-08-07T18:35:00.801Z,102002.00
2022-08-07T18:38:55.561Z,102003.00
2022-08-07T18:40:57.740Z,102011.00
2022-08-07T18:44:11.195Z,102005.00
2022-08-07T18:47:20.995Z,102011.00
2022-08-07T18:50:35.393Z,102011.00
2022-08-07T18:53:16.991Z,102017.00
2022-08-07T18:56:30.855Z,102016.00
2022-08-07T18:59:48.057Z,102017.00
2022-08-07T19:03:36.199Z,102020.00
2022-08-07T19:06:34.531Z,102019.00
2022-08-07T19:09:57.218Z,102037.00
2022-08-07T19:12:57.886Z,102029.00
2022-08-07T19:17:00.561Z,102034.00
2022-08-07T19:19:58.956Z,102044.00
2022-08-07T19:23:18.939Z,102039.00
2022-08-07T19:26:25.102Z,102038.00
2022-08-07T19:30:55.676Z,102044.00
2022-08-07T19:32:07.759Z,102049.00
2022-08-07T19:34:41.991Z,102054.00
2022-08-07T19:37:19.399Z,102056.00
2022-08-07T19:40:06.767Z,102060.00
2022-08-07T19:42:44.507Z,102067.00
2022-08-07T19:46:04.846Z,102062.00
2022-08-07T19:48:18.378Z,102066.00
2022-08-07T19:50:53.079Z,102066.00
2022-08-07T19:54:32.021Z,102069.00
2022-08-07T19:58:01.397Z,102069.00
2022-08-07T19:59:41.181Z,102076.00
2022-08-07T20:02:19.622Z,102073.00
2022-08-07T20:04:51.725Z,102082.00
2022-08-07T20:07:46.317Z,102084.00
2022-08-07T20:10:36.677Z,102088.00
2022-08-07T20:13:31.995Z,102081.00
2022-08-07T20:16:03.817Z,102077.00
2022-08-07T20:18:34.539Z,102089.00
2022-08-07T20:21:14.294Z,102083.00
2022-08-07T20:23:53.890Z,102091.00
2022-08-07T20:26:32.492Z,102088.00
2022-08-07T20:29:17.101Z,102090.00
2022-08-07T20:32:02.875Z,102089.00
2022-08-07T20:34:50.286Z,102090.00
2022-08-07T20:37:29.541Z,102095.00
2022-08-07T20:40:03.973Z,102089.00
2022-08-07T20:42:37.744Z,102091.00
2022-08-07T20:45:32.570Z,102097.00
2022-08-07T20:47:58.443Z,102096.00
2022-08-07T20:50:29.253Z,102098.00
2022-08-07T20:52:59.537Z,102083.00
2022-08-07T20:55:32.218Z,102090.00
2022-08-07T20:58:11.881Z,102092.00
2022-08-07T21:00:57.850Z,102102.00
2022-08-07T21:03:27.775Z,102105.00
2022-08-07T21:06:22.294Z,102099.00
2022-08-07T21:09:14.135Z,102112.00
2022-08-07T21:11:50.918Z,102102.00
2022-08-07T21:14:33.156Z,102105.00
2022-08-07T21:18:03.031Z,102108.00
2022-08-07T21:20:09.951Z,102108.00
2022-08-07T21:22:53.510Z,102110.00
2022-08-07T21:25:42.612Z,102106.00
2022-08-07T21:28:48.961Z,102108.00
2022-08-07T21:32:46.823Z,102098.00
2022-08-07T21:35:10.811Z,102108.00
2022-08-07T21:38:07.285Z,102108.00
2022-08-07T21:40:47.708Z,102106.00
2022-08-07T21:43:56.038Z,102106.00
2022-08-07T21:46:49.841Z,102109.00
2022-08-07T21:50:00.773Z,102116.00
2022-08-07T21:52:56.866Z,102111.00
2022-08-07T21:55:42.873Z,102110.00
2022-08-07T21:58:32.253Z,102121.00
2022-08-07T22:01:13.707Z,102118.00
2022-08-07T22:04:02.703Z,102127.00
2022-08-07T22:07:06.046Z,102126.00
2022-08-07T22:09:54.107Z,102132.00
2022-08-07T22:12:50.764Z,102130.00
2022-08-07T22:16:35.807Z,102131.00
2022-08-07T22:18:32.277Z,102132.00
2022-08-07T22:21:25.176Z,102131.00
2022-08-07T22:24:41.298Z,102129.00
2022-08-07T22:28:08.055Z,102131.00
2022-08-07T22:31:11.394Z,102137.00
2022-08-07T22:34:12.922Z,102139.00
2022-08-07T22:37:21.235Z,102143.00
2022-08-07T22:40:10.754Z,102141.00
2022-08-07T22:42:44.441Z,102144.00
2022-08-07T22:46:04.262Z,102154.00
2022-08-07T22:48:54.912Z,102151.00
2022-08-07T22:52:10.023Z,102157.00
2022-08-07T22:55:22.468Z,102156.00
2022-08-07T22:58:04.490Z,102159.00
2022-08-07T23:01:09.005Z,102153.00
2022-08-07T23:04:30.138Z,102156.00
2022-08-07T23:07:50.792Z,102159.00
2022-08-07T23:10:59.270Z,102160.00
2022-08-07T23:14:10.696Z,102155.00
2022-08-07T23:17:35.491Z,102158.00
2022-08-07T23:20:52.745Z,102151.00
2022-08-07T23:24:07.025Z,102162.00
2022-08-07T23:26:50.171Z,102145.00
2022-08-07T23:30:36.978Z,102156.00
2022-08-07T23:34:34.210Z,102159.00
2022-08-07T23:36:10.724Z,102157.00
2022-08-07T23:39:35.980Z,102158.00
2022-08-07T23:42:49.564Z,102150.00
2022-08-07T23:46:03.302Z,102151.00
2022-08-07T23:48:58.855Z,102153.00
2022-08-07T23:52:58.661Z,102144.00
2022-08-07T23:54:53.152Z,102148.00
2022-08-07T23:57:43.182Z,102149.00
